Time;durP1;ratioP1;P1;durP2;ratioP2;P2;SDS_P1;SDS_P2;PMS_P1;PMS_P2;Temp;Humidity;BMP_temperature;BMP_pressure;BME280_temperature;BME280_humidity;BME280_pressure;Samples;Min_cycle;Max_cycle;Signal;HPM_P1;HPM_P2
2023/05/02 00:08:56;;;;;;;2.50;2.30;;;;;;;12.64;96.16;95661.47;4827172;29;20207;-87
2023/05/02 00:43:40;;;;;;;2.60;2.40;;;;;;;12.51;94.32;95656.97;4891996;28;20205;-87
2023/05/02 00:52:44;;;;;;;2.70;2.50;;;;;;;12.43;94.07;95652.75;4858935;29;20264;-88
2023/05/02 01:23:15;;;;;;;2.80;2.60;;;;;;;12.35;92.95;95664.97;4786867;30;20237;-88
2023/05/02 01:26:16;;;;;;;2.90;2.70;;;;;;;12.34;93.13;95664.19;4734731;29;20332;-88
2023/05/02 01:29:40;;;;;;;2.93;2.73;;;;;;;12.33;92.80;95662.56;4777526;29;20229;-89
2023/05/02 01:36:44;;;;;;;;;;;;;;;;;;;;;
2023/05/02 02:07:20;;;;;;;2.63;2.43;;;;;;;12.28;91.22;95674.47;4984214;28;20289;-87
2023/05/02 02:47:53;;;;;;;2.90;2.63;;;;;;;12.05;92.36;95703.81;4815974;29;20586;-87
2023/05/02 02:51:14;;;;;;;;;;;;;;;;;;;;;
2023/05/02 03:36:42;;;;;;;2.27;2.17;;;;;;;12.02;89.86;95731.75;4952600;29;20295;-86
2023/05/02 03:43:36;;;;;;;2.60;2.40;;;;;;;11.99;89.78;95732.13;4784636;29;20277;-87
2023/05/02 04:17:53;;;;;;;;;;;;;;;;;;;;;
2023/05/02 04:54:54;;;;;;;3.00;2.80;;;;;;;11.99;88.73;95812.91;4857299;29;20683;-86
2023/05/02 05:01:02;;;;;;;2.83;2.60;;;;;;;12.04;88.36;95827.88;4978357;28;20242;-85
2023/05/02 05:42:55;;;;;;;3.03;2.60;;;;;;;12.31;88.76;95860.78;4835529;29;20304;-87
2023/05/02 05:48:18;;;;;;;3.57;2.90;;;;;;;12.32;88.51;95871.88;4958874;28;20208;-86
2023/05/02 05:51:06;;;;;;;3.00;2.70;;;;;;;12.34;88.59;95875.09;4974023;28;20219;-87
2023/05/02 05:56:49;;;;;;;7.00;6.30;;;;;;;12.38;89.01;95881.50;4960887;28;20231;-86
2023/05/02 05:59:46;;;;;;;;;;;;;;;;;;;;;
2023/05/02 06:05:29;;;;;;;3.57;3.00;;;;;;;12.40;90.07;95888.09;4969840;28;20235;-86
2023/05/02 06:08:34;;;;;;;;;;;;;;;;;;;;;
2023/05/02 06:11:30;;;;;;;3.30;3.07;;;;;;;12.50;89.75;95887.84;4973829;28;20207;-86
2023/05/02 06:14:12;;;;;;;3.77;3.47;;;;;;;12.61;88.84;95894.31;4976027;28;20255;-87
2023/05/02 06:17:37;;;;;;;3.43;3.13;;;;;;;12.70;89.18;95895.81;4975855;28;20240;-87
2023/05/02 06:20:47;;;;;;;3.37;3.17;;;;;;;12.74;88.77;95900.41;4889596;29;20551;-86
2023/05/02 06:23:40;;;;;;;3.43;3.17;;;;;;;12.65;87.97;95898.94;4888787;28;20210;-85
2023/05/02 06:32:43;;;;;;;4.30;3.50;;;;;;;12.79;87.78;95912.78;4990248;28;20203;-86
2023/05/02 06:38:28;;;;;;;4.03;3.60;;;;;;;13.01;87.22;95922.19;4917792;29;20504;-87
2023/05/02 06:41:14;;;;;;;8.80;7.90;;;;;;;12.96;86.96;95923.72;4974209;28;20934;-86
2023/05/02 06:44:03;;;;;;;5.50;5.00;;;;;;;13.09;86.34;95914.28;4994393;28;20211;-85
2023/05/02 06:46:36;;;;;;;4.07;3.73;;;;;;;13.04;86.60;95924.41;4996602;28;20771;-85
2023/05/02 06:49:11;;;;;;;4.07;3.70;;;;;;;13.07;87.29;95921.47;4996929;28;20207;-87
2023/05/02 06:51:45;;;;;;;4.60;3.50;;;;;;;13.18;86.40;95930.53;4999647;28;20215;-86
2023/05/02 06:54:24;;;;;;;4.23;3.70;;;;;;;13.24;86.43;95929.81;4997737;28;20263;-88
2023/05/02 06:56:50;;;;;;;5.87;3.80;;;;;;;13.24;86.11;95931.59;4996730;28;20223;-86
2023/05/02 06:59:17;;;;;;;7.73;5.73;;;;;;;13.31;86.66;95935.84;4995197;28;20290;-86
2023/05/02 07:01:50;;;;;;;4.93;4.53;;;;;;;13.29;86.05;95944.75;4991645;28;20199;-86
2023/05/02 07:05:00;;;;;;;;;;;;;;;;;;;;;
2023/05/02 07:10:43;;;;;;;4.13;3.70;;;;;;;13.36;85.29;95936.09;4993688;28;20266;-87
2023/05/02 07:13:19;;;;;;;5.13;4.63;;;;;;;13.39;83.67;95933.13;4993184;28;20214;-86
2023/05/02 07:19:28;;;;;;;4.83;4.40;;;;;;;13.53;83.98;95944.38;4996198;28;20607;-87
2023/05/02 07:22:03;;;;;;;4.70;4.20;;;;;;;13.56;83.80;95943.22;4999041;28;20203;-85
2023/05/02 07:24:39;;;;;;;4.90;4.50;;;;;;;13.49;83.56;95940.56;4993948;28;20607;-86
2023/05/02 07:27:13;;;;;;;6.43;4.73;;;;;;;13.40;84.03;95944.28;4992855;28;20387;-86
2023/05/02 07:29:41;;;;;;;4.80;4.40;;;;;;;13.47;84.38;95947.72;4993885;28;20207;-86
2023/05/02 07:32:16;;;;;;;4.57;4.20;;;;;;;13.53;84.29;95949.56;4992785;28;20212;-87
2023/05/02 07:34:55;;;;;;;5.20;4.57;;;;;;;13.60;83.45;95947.84;4994821;28;20219;-86
2023/05/02 07:37:35;;;;;;;5.47;4.97;;;;;;;13.62;83.33;95945.06;4996812;28;20420;-86
2023/05/02 07:40:09;;;;;;;4.97;4.57;;;;;;;13.56;83.04;95945.81;4995320;28;20199;-86
2023/05/02 07:42:57;;;;;;;5.07;4.67;;;;;;;13.60;83.21;95953.03;4999706;28;20218;-87
2023/05/02 07:45:29;;;;;;;4.90;4.50;;;;;;;13.61;82.39;95948.66;5002136;28;20296;-86
2023/05/02 07:48:06;;;;;;;5.17;4.43;;;;;;;13.72;82.39;95945.53;5000065;28;20272;-88
2023/05/02 07:50:49;;;;;;;5.23;4.83;;;;;;;13.80;83.35;95953.19;5001125;28;20207;-87
2023/05/02 07:53:19;;;;;;;6.20;4.60;;;;;;;13.82;82.48;95952.00;4998051;28;20207;-87
2023/05/02 07:55:49;;;;;;;5.37;4.90;;;;;;;13.86;82.11;95949.03;4999453;28;20223;-87
2023/05/02 07:59:22;;;;;;;5.43;4.93;;;;;;;13.88;84.06;95958.22;5001256;28;20224;-87
2023/05/02 08:04:58;;;;;;;5.03;4.63;;;;;;;14.15;81.92;95965.19;5005453;28;20231;-88
2023/05/02 08:07:32;;;;;;;7.18;4.85;;;;;;;14.26;81.16;95966.44;5001767;28;20935;-86
2023/05/02 08:10:16;;;;;;;7.50;6.90;;;;;;;14.20;80.32;95969.00;5004174;28;20200;-87
2023/05/02 08:12:49;;;;;;;14.65;13.20;;;;;;;14.38;80.68;95966.72;4943618;29;20213;-87
2023/05/02 08:15:37;;;;;;;;;;;;;;;;;;;;;
2023/05/02 08:21:07;;;;;;;5.43;4.93;;;;;;;14.66;79.43;95967.50;5003366;28;20203;-87
2023/05/02 08:23:59;;;;;;;;;;;;;;;;;;;;;
2023/05/02 08:29:55;;;;;;;5.40;5.00;;;;;;;14.64;77.41;95968.69;4998063;28;20208;-87
2023/05/02 08:32:28;;;;;;;5.60;5.20;;;;;;;14.64;77.66;95966.09;4997820;28;20255;-86
2023/05/02 08:35:24;;;;;;;5.43;4.93;;;;;;;14.76;78.43;95972.34;4997854;28;20258;-86
2023/05/02 08:38:04;;;;;;;5.60;5.10;;;;;;;14.86;77.91;95968.38;5002062;28;20222;-86
2023/05/02 08:40:42;;;;;;;5.25;4.75;;;;;;;14.91;77.66;95969.59;5000537;28;20472;-86
2023/05/02 08:49:25;;;;;;;5.43;5.03;;;;;;;15.18;75.84;95977.28;4999674;28;20652;-87
2023/05/02 08:52:19;;;;;;;6.45;5.90;;;;;;;15.14;74.50;95970.91;4984958;28;20218;-87
2023/05/02 08:54:57;;;;;;;6.93;6.32;;;;;;;15.14;75.29;95976.09;5013479;23;20478;-86
2023/05/02 08:57:39;;;;;;;5.88;5.38;;;;;;;15.19;75.64;95975.50;5019620;28;20222;-87
2023/05/02 09:06:56;;;;;;;;;;;;;;;;;;;;;
2023/05/02 09:09:43;;;;;;;5.72;5.22;;;;;;;15.23;75.81;95994.03;5013818;28;20251;-88
2023/05/02 09:12:18;;;;;;;5.55;5.15;;;;;;;15.28;75.98;95992.47;4998659;28;20207;-87
2023/05/02 09:15:15;;;;;;;;;;;;;;;;;;;;;
2023/05/02 09:18:02;;;;;;;6.25;5.65;;;;;;;15.36;76.90;95997.50;4981027;28;20318;-86
2023/05/02 09:20:51;;;;;;;6.03;5.40;;;;;;;15.43;75.09;96000.88;4999363;28;20218;-86
2023/05/02 09:23:44;;;;;;;6.10;5.60;;;;;;;15.47;73.90;96003.91;5009573;28;20203;-86
2023/05/02 09:26:54;;;;;;;5.85;5.18;;;;;;;15.50;72.88;96004.31;4985625;28;20239;-86
2023/05/02 09:29:46;;;;;;;6.10;5.50;;;;;;;15.64;70.79;96014.75;5013168;28;20684;-87
2023/05/02 09:33:02;;;;;;;5.40;5.00;;;;;;;15.61;70.39;96005.56;5013598;28;20203;-86
2023/05/02 09:36:09;;;;;;;5.70;5.25;;;;;;;15.62;70.32;96014.94;5012364;28;20227;-86
2023/05/02 09:45:22;;;;;;;;;;;;;;;;;;;;;
2023/05/02 09:47:57;;;;;;;6.63;6.03;;;;;;;15.57;70.08;96006.97;5008371;28;20279;-86
2023/05/02 09:50:42;;;;;;;6.28;5.75;;;;;;;15.54;70.45;96013.31;5012385;28;20201;-87
2023/05/02 10:09:09;;;;;;;6.20;5.20;;;;;;;15.71;70.09;96005.97;4922570;29;20248;-86
2023/05/02 10:11:55;;;;;;;6.45;5.85;;;;;;;15.83;69.08;96006.19;4989397;28;20203;-86
2023/05/02 10:17:56;;;;;;;6.78;6.20;;;;;;;15.87;68.13;96013.38;4960075;28;20266;-87
2023/05/02 10:20:36;;;;;;;6.38;5.88;;;;;;;15.95;68.43;96007.22;4973939;28;20223;-88
2023/05/02 10:26:00;;;;;;;6.40;5.80;;;;;;;16.20;66.92;96015.97;4996965;28;20239;-88
2023/05/02 10:28:47;;;;;;;5.75;5.20;;;;;;;16.31;66.31;96009.38;5000734;28;20203;-88
2023/05/02 10:31:38;;;;;;;;;;;;;;;;;;;;;
2023/05/02 10:36:51;;;;;;;7.68;5.95;;;;;;;16.14;68.11;96010.81;4988205;28;20218;-88
2023/05/02 10:39:41;;;;;;;7.07;6.15;;;;;;;16.07;69.41;96010.00;4997483;28;20636;-87
2023/05/02 10:42:30;;;;;;;7.47;5.70;;;;;;;15.94;69.44;96010.78;5034389;28;20198;-87
2023/05/02 10:45:10;;;;;;;6.20;5.70;;;;;;;15.71;70.12;96015.56;5034305;28;20277;-88
2023/05/02 10:47:47;;;;;;;6.45;5.95;;;;;;;15.29;74.65;96011.44;5037067;28;20590;-87
2023/05/02 10:50:17;;;;;;;30.95;26.35;;;;;;;15.10;73.39;96018.16;5038310;28;20755;-86
2023/05/02 10:52:44;;;;;;;19.98;17.90;;;;;;;14.84;74.00;96022.22;5035756;28;20482;-87
2023/05/02 11:01:47;;;;;;;10.98;7.28;;;;;;;14.56;79.27;96026.66;5020028;28;20213;-87
2023/05/02 11:08:40;;;;;;;9.88;8.55;;;;;;;14.44;85.18;96017.81;4892239;29;20206;-86
2023/05/02 11:11:48;;;;;;;8.80;8.00;;;;;;;14.34;87.17;96012.13;4968035;28;20673;-87
2023/05/02 11:18:38;;;;;;;;;;;;;;;;;;;;;
2023/05/02 11:24:46;;;;;;;9.60;8.57;;;;;;;14.28;91.05;96012.88;4994250;28;20387;-86
2023/05/02 11:27:53;;;;;;;10.57;9.67;;;;;;;14.33;91.52;96011.34;5001933;28;20203;-88
2023/05/02 11:36:40;;;;;;;12.55;11.25;;;;;;;14.46;94.41;96021.81;5027768;23;20226;-87
2023/05/02 11:52:26;;;;;;;13.85;12.50;;;;;;;14.69;92.31;96025.94;4925664;28;20428;-89
2023/05/02 11:57:36;;;;;;;11.48;10.57;;;;;;;14.68;92.53;96022.53;5003870;28;20222;-88
2023/05/02 12:00:46;;;;;;;11.55;10.55;;;;;;;14.70;92.77;96024.94;5027196;28;20722;-88
2023/05/02 12:04:06;;;;;;;12.35;11.25;;;;;;;14.69;92.76;96028.53;5022477;28;20619;-86
2023/05/02 12:06:33;;;;;;;11.07;9.93;;;;;;;14.74;92.48;96028.75;5020678;28;20226;-86
2023/05/02 12:12:25;;;;;;;;;;;;;;;;;;;;;
2023/05/02 12:18:11;;;;;;;;;;;;;;;;;;;;;
2023/05/02 12:21:06;;;;;;;10.77;9.77;;;;;;;14.80;90.91;96026.22;5001154;28;20286;-87
2023/05/02 12:27:09;;;;;;;10.98;9.90;;;;;;;14.94;91.14;96021.09;5018776;28;20206;-88
2023/05/02 12:30:10;;;;;;;10.35;9.40;;;;;;;14.96;89.21;96029.47;5018881;28;20202;-86
2023/05/02 12:32:53;;;;;;;9.88;9.05;;;;;;;15.06;88.67;96027.31;4952567;28;20206;-88
2023/05/02 12:35:28;;;;;;;9.90;9.00;;;;;;;15.16;88.65;96030.34;5019706;28;20223;-88
2023/05/02 12:38:10;;;;;;;8.98;8.20;;;;;;;15.23;86.86;96028.56;5021917;28;20318;-88
2023/05/02 12:40:50;;;;;;;9.02;8.07;;;;;;;15.24;84.01;96026.78;5020566;28;20211;-87
2023/05/02 12:43:30;;;;;;;8.63;7.82;;;;;;;15.31;84.80;96027.63;5022675;28;20202;-88
2023/05/02 12:46:15;;;;;;;9.43;8.63;;;;;;;15.37;84.94;96030.25;5020998;28;20697;-87
2023/05/02 12:49:11;;;;;;;16.17;14.57;;;;;;;15.46;84.75;96028.25;5022824;28;20199;-88
2023/05/02 12:51:44;;;;;;;19.30;17.48;;;;;;;15.51;84.94;96025.88;5019217;28;20194;-87
2023/05/02 12:54:27;;;;;;;8.93;8.05;;;;;;;15.48;82.89;96027.06;5020481;28;20207;-87
2023/05/02 12:57:07;;;;;;;8.25;7.40;;;;;;;15.57;82.28;96027.72;5020302;28;20209;-87
2023/05/02 12:59:35;;;;;;;8.82;7.93;;;;;;;15.62;81.74;96027.91;5018676;28;20219;-87
2023/05/02 13:02:16;;;;;;;7.28;6.68;;;;;;;15.65;80.38;96027.53;4999962;28;20280;-87
2023/05/02 13:05:27;;;;;;;7.95;7.20;;;;;;;15.69;78.29;96027.94;5011211;28;20222;-87
2023/05/02 13:07:58;;;;;;;7.70;7.00;;;;;;;15.72;76.96;96024.94;5003346;28;20201;-87
2023/05/02 13:10:35;;;;;;;7.90;7.18;;;;;;;15.72;79.08;96038.72;5016881;28;20203;-87
2023/05/02 13:13:12;;;;;;;8.07;7.20;;;;;;;15.66;78.31;96031.72;5019577;28;20302;-87
2023/05/02 13:15:39;;;;;;;7.72;7.03;;;;;;;15.63;79.38;96026.91;4960773;28;20298;-88
2023/05/02 13:18:08;;;;;;;6.90;6.40;;;;;;;15.55;77.38;96032.28;5007179;28;20767;-87
2023/05/02 13:20:40;;;;;;;7.28;6.68;;;;;;;15.56;77.28;96033.91;5018826;28;20565;-87
2023/05/02 13:26:24;;;;;;;7.22;6.60;;;;;;;15.39;77.51;96043.03;5018132;28;20223;-87
2023/05/02 13:28:55;;;;;;;7.38;6.20;;;;;;;15.26;76.00;96040.34;5015155;28;20210;-86
2023/05/02 13:31:26;;;;;;;6.30;5.70;;;;;;;15.26;75.49;96035.97;5018374;28;20203;-86
2023/05/02 13:34:12;;;;;;;6.05;5.55;;;;;;;15.14;75.70;96042.72;5022672;28;20203;-87
2023/05/02 13:36:50;;;;;;;5.80;5.30;;;;;;;15.02;75.67;96044.25;5022731;28;20210;-86
2023/05/02 13:39:33;;;;;;;5.22;4.75;;;;;;;15.04;77.23;96037.06;5015838;28;20318;-87
2023/05/02 13:42:07;;;;;;;5.57;4.50;;;;;;;14.98;72.69;96038.66;5021939;28;20213;-87
2023/05/02 13:44:38;;;;;;;4.03;3.72;;;;;;;14.96;71.92;96037.25;5021540;28;20238;-86
2023/05/02 13:47:07;;;;;;;4.80;4.40;;;;;;;15.04;71.91;96037.06;5018613;28;20278;-88
2023/05/02 13:49:34;;;;;;;4.30;3.90;;;;;;;15.14;70.87;96040.13;5020923;28;20262;-87
2023/05/02 13:55:04;;;;;;;4.43;4.03;;;;;;;15.21;71.01;96044.31;5019309;28;20227;-88
2023/05/02 13:57:34;;;;;;;4.45;4.05;;;;;;;15.19;69.82;96038.56;5019197;28;20207;-87
2023/05/02 14:00:28;;;;;;;5.35;4.55;;;;;;;15.19;70.00;96046.34;5022328;28;20215;-87
2023/05/02 14:03:03;;;;;;;4.60;4.20;;;;;;;15.30;70.78;96044.16;5021365;28;20245;-88
2023/05/02 14:06:03;;;;;;;4.60;4.20;;;;;;;15.24;67.98;96050.94;5009293;28;20222;-87
2023/05/02 14:08:42;;;;;;;3.85;3.55;;;;;;;15.20;67.25;96055.69;5001594;28;20228;-88
2023/05/02 14:11:10;;;;;;;4.20;3.80;;;;;;;15.15;67.03;96055.50;5020403;28;20191;-86
2023/05/02 14:13:38;;;;;;;5.65;4.15;;;;;;;15.08;66.41;96062.44;5017476;28;20221;-86
2023/05/02 14:19:20;;;;;;;4.30;3.55;;;;;;;14.20;67.85;96052.69;5023272;28;20222;-87
2023/05/02 14:22:07;;;;;;;;;;;;;;;;;;;;;
2023/05/02 14:24:59;;;;;;;4.53;3.60;;;;;;;14.01;69.82;96055.91;5004329;28;20584;-88
2023/05/02 14:27:36;;;;;;;3.80;3.40;;;;;;;13.99;72.09;96060.47;5020922;28;20273;-86
2023/05/02 14:30:34;;;;;;;4.00;3.60;;;;;;;13.95;71.10;96067.81;5019044;28;20301;-86
2023/05/02 14:36:07;;;;;;;4.20;3.90;;;;;;;13.60;71.34;96066.88;5017148;28;20231;-87
2023/05/02 14:38:53;;;;;;;;;;;;;;;;;;;;;
2023/05/02 14:41:30;;;;;;;4.40;3.77;;;;;;;13.47;70.75;96072.69;5018933;28;20424;-87
2023/05/02 14:44:05;;;;;;;4.17;3.77;;;;;;;13.52;71.97;96072.13;5021451;28;20210;-86
2023/05/02 14:49:52;;;;;;;4.10;3.80;;;;;;;13.58;70.70;96068.84;5020736;28;20199;-86
2023/05/02 14:53:01;;;;;;;4.50;4.10;;;;;;;13.60;72.32;96072.03;5016516;28;20499;-88
2023/05/02 14:55:51;;;;;;;3.70;3.40;;;;;;;13.79;70.97;96066.25;5008871;28;20222;-86
2023/05/02 14:58:38;;;;;;;;;;;;;;;;;;;;;
2023/05/02 15:01:10;;;;;;;4.53;3.80;;;;;;;13.90;70.20;96069.34;5019219;28;20200;-86
2023/05/02 15:06:42;;;;;;;4.65;3.88;;;;;;;14.02;69.12;96063.50;5022447;28;20215;-86
2023/05/02 15:11:59;;;;;;;4.47;3.70;;;;;;;14.12;68.75;96074.31;5021547;28;20237;-87
2023/05/02 15:14:34;;;;;;;3.70;3.40;;;;;;;14.04;68.13;96069.28;5027158;28;20271;-86
2023/05/02 15:17:02;;;;;;;3.70;3.30;;;;;;;14.03;68.26;96065.09;5026069;28;20198;-87
2023/05/02 15:22:36;;;;;;;;;;;;;;;;;;;;;
2023/05/02 15:25:12;;;;;;;6.03;3.40;;;;;;;14.27;69.09;96050.94;5026589;28;20218;-87
2023/05/02 15:27:45;;;;;;;3.70;3.45;;;;;;;14.54;68.71;96057.16;5026096;28;20195;-86
2023/05/02 15:30:17;;;;;;;5.38;3.25;;;;;;;14.88;68.57;96053.75;5026362;28;20673;-87
2023/05/02 15:33:02;;;;;;;;;;;;;;;;;;;;;
2023/05/02 15:35:40;;;;;;;3.15;2.85;;;;;;;15.25;65.58;96052.53;5025289;28;20222;-86
2023/05/02 15:38:11;;;;;;;3.60;3.17;;;;;;;15.23;64.45;96054.50;5025996;28;20210;-86
2023/05/02 15:40:43;;;;;;;3.17;2.88;;;;;;;15.01;64.83;96059.00;5024964;28;20218;-86
2023/05/02 15:43:20;;;;;;;3.35;3.05;;;;;;;14.75;66.10;96056.28;5024996;28;20310;-86
2023/05/02 15:48:55;;;;;;;3.35;2.80;;;;;;;14.54;66.23;96064.13;5025284;28;20552;-86
2023/05/02 15:51:31;;;;;;;2.90;2.70;;;;;;;14.54;66.44;96069.31;5024020;28;20206;-86
2023/05/02 15:54:00;;;;;;;3.63;2.85;;;;;;;14.50;65.65;96074.06;5025883;28;20224;-86
2023/05/02 15:56:27;;;;;;;4.40;2.60;;;;;;;14.46;65.61;96070.22;5024414;28;20203;-86
2023/05/02 15:59:21;;;;;;;2.80;2.60;;;;;;;14.44;65.52;96072.22;5016982;28;20231;-86
2023/05/02 16:01:59;;;;;;;2.60;2.40;;;;;;;14.32;65.54;96063.31;5024285;28;20241;-86
2023/05/02 16:04:26;;;;;;;3.03;2.80;;;;;;;14.32;66.18;96069.31;5021743;28;20230;-87
2023/05/02 16:06:59;;;;;;;2.75;2.45;;;;;;;14.36;65.86;96073.13;5022218;28;20743;-86
2023/05/02 16:09:36;;;;;;;2.70;2.40;;;;;;;14.36;66.12;96074.94;5016435;28;20195;-86
2023/05/02 16:12:08;;;;;;;2.83;2.63;;;;;;;14.41;65.71;96073.41;5003502;28;20254;-85
2023/05/02 16:14:40;;;;;;;2.30;2.10;;;;;;;14.38;65.64;96078.94;5002896;28;20296;-86
2023/05/02 16:17:14;;;;;;;2.60;2.40;;;;;;;14.36;65.42;96093.84;5002203;28;20207;-86
2023/05/02 16:19:43;;;;;;;2.60;2.40;;;;;;;14.43;65.81;96101.72;5002411;28;20223;-87
2023/05/02 16:22:17;;;;;;;2.83;2.63;;;;;;;14.50;66.18;96105.16;5020738;28;20198;-86
2023/05/02 16:24:49;;;;;;;2.58;2.35;;;;;;;14.55;67.18;96122.72;5022436;28;20222;-87
2023/05/02 16:28:07;;;;;;;2.80;2.60;;;;;;;14.61;66.68;96137.53;5027480;28;20206;-89
2023/05/02 16:30:36;;;;;;;2.47;2.28;;;;;;;14.62;66.71;96145.13;5002099;28;20203;-88
2023/05/02 16:33:16;;;;;;;2.70;2.50;;;;;;;14.44;71.34;96155.91;5027130;28;20202;-87
2023/05/02 16:39:24;;;;;;;3.17;2.80;;;;;;;14.25;78.35;96163.47;5017835;28;20211;-88
2023/05/02 16:41:54;;;;;;;3.80;3.50;;;;;;;14.16;80.63;96170.59;5005743;28;20719;-88
2023/05/02 16:44:45;;;;;;;4.00;3.35;;;;;;;13.95;82.69;96173.94;5024449;28;20848;-88
2023/05/02 16:47:20;;;;;;;3.95;3.28;;;;;;;13.81;82.92;96170.41;5021178;28;20199;-87
2023/05/02 16:49:54;;;;;;;3.70;3.40;;;;;;;13.59;83.89;96183.47;5024087;28;20198;-88
2023/05/02 16:52:35;;;;;;;3.13;2.92;;;;;;;13.47;84.55;96191.69;5020598;28;20237;-87
2023/05/02 18:00:44;;;;;;;;;;;;;;;;;;;;;
2023/05/02 18:06:20;;;;;;;2.87;2.67;;;;;;;13.11;85.78;96198.50;5009719;28;20222;-88
2023/05/02 18:12:36;;;;;;;3.00;2.70;;;;;;;13.10;83.82;96200.28;4978274;28;20231;-86
2023/05/02 18:15:54;;;;;;;3.10;2.80;;;;;;;13.14;84.08;96193.78;4978890;28;20251;-88
2023/05/02 18:18:48;;;;;;;;;;;;;;;;;;;;;
2023/05/02 18:24:53;;;;;;;5.60;3.90;;;;;;;13.17;87.07;96215.13;4957164;28;20220;-87
2023/05/02 18:27:59;;;;;;;2.90;2.70;;;;;;;13.07;86.81;96212.78;4956426;28;20212;-87
2023/05/02 18:30:28;;;;;;;3.20;2.90;;;;;;;13.05;85.94;96212.16;4967017;28;20460;-88
2023/05/02 18:33:00;;;;;;;3.27;2.97;;;;;;;13.06;86.81;96213.78;4978958;28;20199;-86
2023/05/02 18:35:45;;;;;;;3.47;3.17;;;;;;;13.05;86.77;96218.13;4985568;28;20227;-87
2023/05/02 18:38:36;;;;;;;;;;;;;;;;;;;;;
2023/05/02 18:44:43;;;;;;;5.87;4.93;;;;;;;13.01;86.06;96219.47;4950411;28;20375;-87
2023/05/02 18:47:29;;;;;;;14.00;12.50;;;;;;;13.01;86.39;96229.78;5007007;28;20195;-87
2023/05/02 18:50:13;;;;;;;12.10;9.90;;;;;;;12.96;88.91;96228.72;5016493;28;20208;-87
2023/05/02 18:52:48;;;;;;;5.63;5.10;;;;;;;12.92;89.14;96227.44;4986846;28;20269;-88
2023/05/02 19:05:13;;;;;;;6.00;4.93;;;;;;;13.03;87.82;96245.13;5004032;28;20233;-86
2023/05/02 19:08:05;;;;;;;6.17;4.97;;;;;;;13.03;87.87;96252.88;4983159;28;20216;-86
2023/05/02 19:10:43;;;;;;;5.47;4.97;;;;;;;13.05;87.76;96248.34;5004448;28;20199;-86
2023/05/02 19:13:25;;;;;;;8.40;7.27;;;;;;;13.02;88.16;96248.69;4998928;28;20217;-87
2023/05/02 19:20:17;;;;;;;6.00;4.80;;;;;;;12.77;90.71;96251.47;4852447;28;20215;-87
2023/05/02 19:23:17;;;;;;;;;;;;;;;;;;;;;
2023/05/02 19:33:22;;;;;;;4.00;3.70;;;;;;;12.77;89.44;96259.22;4953550;28;20205;-89
2023/05/02 19:42:32;;;;;;;5.03;3.80;;;;;;;12.70;88.60;96266.06;4946058;28;20214;-87
2023/05/02 19:59:28;;;;;;;;;;;;;;;;;;;;;
2023/05/02 20:02:45;;;;;;;10.67;8.77;;;;;;;12.54;88.12;96278.28;4998870;28;20731;-87
2023/05/02 20:09:02;;;;;;;7.50;6.13;;;;;;;12.36;92.57;96283.72;5003568;28;20211;-88
2023/05/02 20:11:50;;;;;;;9.10;7.50;;;;;;;12.44;91.77;96289.66;4963531;28;20208;-87
2023/05/02 20:14:17;;;;;;;5.43;4.93;;;;;;;12.37;89.98;96287.91;4982254;28;20208;-87
2023/05/02 20:17:26;;;;;;;;;;;;;;;;;;;;;
2023/05/02 20:20:08;;;;;;;;;;;;;;;;;;;;;
2023/05/02 20:23:11;;;;;;;5.67;4.90;;;;;;;12.21;89.97;96291.38;4941818;29;20276;-87
2023/05/02 20:28:26;;;;;;;6.30;5.70;;;;;;;12.26;88.82;96298.63;4957398;28;20216;-88
2023/05/02 20:31:03;;;;;;;6.97;6.20;;;;;;;12.14;89.76;96303.34;4973809;28;20207;-87
2023/05/02 20:33:47;;;;;;;6.80;6.07;;;;;;;12.03;90.42;96299.38;4984282;28;20228;-88
2023/05/02 20:36:43;;;;;;;9.27;6.37;;;;;;;12.03;90.57;96294.22;4987098;28;21152;-89
2023/05/02 20:39:20;;;;;;;6.63;5.93;;;;;;;12.07;90.17;96292.91;5007421;28;20213;-89
2023/05/02 20:42:04;;;;;;;8.07;7.13;;;;;;;12.02;90.00;96292.59;4990512;28;20284;-88
2023/05/02 20:57:39;;;;;;;10.97;8.83;;;;;;;12.05;89.04;96296.63;4956553;28;20215;-88
2023/05/02 21:00:52;;;;;;;7.00;6.30;;;;;;;12.03;88.76;96294.22;4965161;28;20227;-88
2023/05/02 21:06:12;;;;;;;9.50;7.10;;;;;;;11.94;89.11;96287.47;4919738;29;20242;-87
2023/05/02 21:08:57;;;;;;;9.70;8.70;;;;;;;11.86;89.36;96297.84;4916796;29;20595;-89
2023/05/02 21:12:01;;;;;;;7.47;6.73;;;;;;;11.60;90.96;96297.22;4878143;29;20210;-87
2023/05/02 21:15:44;;;;;;;6.60;5.80;;;;;;;11.50;91.67;96302.56;4880480;29;20234;-87
2023/05/02 21:18:20;;;;;;;6.10;5.60;;;;;;;11.54;91.08;96297.91;4957715;28;20566;-87
2023/05/02 21:21:13;;;;;;;5.40;5.00;;;;;;;11.54;90.78;96295.31;4995339;28;20238;-88
2023/05/02 21:30:58;;;;;;;6.80;5.53;;;;;;;11.59;90.44;96283.53;4911963;29;20299;-88
2023/05/02 21:54:00;;;;;;;7.33;6.70;;;;;;;11.39;89.47;96280.50;4987293;28;20211;-87
2023/05/02 21:56:56;;;;;;;7.70;7.10;;;;;;;11.44;89.66;96290.34;4990598;28;20636;-87
2023/05/02 22:06:24;;;;;;;8.30;6.50;;;;;;;11.61;87.81;96285.94;4978029;28;20363;-88
2023/05/02 22:08:53;;;;;;;7.13;6.50;;;;;;;11.58;87.19;96294.00;4976386;28;20219;-88
2023/05/02 23:12:42;;;;;;;7.07;6.40;;;;;;;11.06;88.48;96302.13;4920898;29;20278;-88
2023/05/02 23:22:32;;;;;;;8.40;7.10;;;;;;;11.12;88.32;96300.69;4919705;29;20249;-88
2023/05/02 23:32:11;;;;;;;6.73;6.03;;;;;;;11.25;87.83;96298.41;4885687;29;20250;-87
